Latest Weather Observations for Grove

IDT60801

Issued at 9:01 am EDT Thursday 29 January 2015 (issued every 30 minutes, with the page automatically refreshed every 10 minutes)

About weather observations | Map of weather stations | Latest weather observations for TAS | Other Formats
Station Details ID: 094220 Name: GROVE (RESEARCH STATION) Lat: -42.99 Lon: 147.07 Height: 65.0 m
Data from the previous 72 hours. | See also: Recent months at Grove
Date/Time
EDT
Temp
°C
App
Temp
°C
Dew
Point
Rel
Hum
%
Delta-T
°C
Wind Press
QNH
hPa
Press
MSL
hPa
Rain
since 9 am
mm
Dir
 
Spd
km/h
Gust
km/h
Spd
kts
Gust
kts
29/09:00am 11.4 11.1 8.8 84 1.3 CALM 0 0 0 0 - - 0.6
29/08:30am 10.7 9.4 9.3 91 0.7 NNE 6 7 3 4 - - 0.6
29/08:00am 10.5 10.3 8.9 90 0.8 CALM 0 0 0 0 - - 0.6
29/07:30am 10.4 10.2 9.0 91 0.7 CALM 0 0 0 0 - - 0.6
29/07:00am 10.2 8.7 8.4 89 0.9 WNW 6 9 3 5 - - 0.6
29/06:30am 10.1 9.1 8.9 92 0.6 NW 4 7 2 4 - - 0.6
29/06:00am 10.4 8.7 7.5 82 1.4 ESE 6 9 3 5 - - 0.6
29/05:30am 10.0 8.1 9.2 95 0.4 NE 9 11 5 6 - - 0.6
29/05:00am 10.0 9.9 9.4 96 0.3 CALM 0 0 0 0 - - 0.6
29/04:30am 10.1 8.8 9.1 93 0.5 ENE 6 7 3 4 - - 0.2
29/04:00am 9.9 9.3 9.1 95 0.4 N 2 7 1 4 - - 0.2
29/03:30am 10.1 9.5 9.1 93 0.5 NNE 2 6 1 3 - - 0.2
29/03:00am 10.1 8.5 8.9 92 0.6 ENE 7 9 4 5 - - 0.2
29/02:30am 10.2 9.1 8.6 90 0.8 NNE 4 9 2 5 - - 0.2
29/02:00am 10.0 8.6 8.8 92 0.6 N 6 7 3 4 - - 0.2
29/01:30am 10.1 9.1 8.9 92 0.6 SSE 4 6 2 3 - - 0.2
29/01:00am 9.9 8.3 8.7 92 0.6 NNE 7 9 4 5 - - 0.2
29/12:30am 10.1 9.6 8.0 87 1.0 CALM 0 0 0 0 - - 0.2
29/12:00am 10.2 8.9 7.7 84 1.2 E 4 7 2 4 - - 0.2
 
Date/Time
EDT
Temp
°C
App
Temp
°C
Dew
Point
Rel
Hum
%
Delta-T
°C
Wind Press
QNH
hPa
Press
MSL
hPa
Rain
since 9 am
mm
Dir
 
Spd
km/h
Gust
km/h
Spd
kts
Gust
kts
28/11:30pm 10.4 8.6 7.3 81 1.5 N 6 7 3 4 - - 0.2
28/11:00pm 10.7 9.5 6.4 75 2.0 SW 2 6 1 3 - - 0.2
28/10:30pm 11.0 8.9 6.6 74 2.1 S 7 9 4 5 - - 0.2
28/10:00pm 12.0 8.8 5.3 63 3.1 SE 11 15 6 8 - - 0.2
28/09:30pm 11.7 9.3 5.4 65 2.9 S 7 11 4 6 - - 0.2
28/09:00pm 12.1 8.5 5.2 62 3.2 SSE 13 20 7 11 - - 0.2
28/08:30pm 12.2 9.5 5.8 65 3.0 S 9 11 5 6 - - 0.2
28/08:00pm 12.7 9.9 5.2 60 3.5 SSE 9 20 5 11 - - 0.2
28/07:30pm 12.9 10.2 5.7 61 3.4 ESE 9 13 5 7 - - 0.2
28/07:00pm 13.3 10.6 5.7 60 3.6 SE 9 13 5 7 - - 0.2
28/06:30pm 13.5 11.1 5.4 58 3.8 SE 7 13 4 7 - - 0.2
28/06:00pm 13.6 9.2 5.0 56 4.0 ESE 17 24 9 13 - - 0.2
28/05:30pm 13.9 9.2 5.2 55 4.1 ESE 19 28 10 15 - - 0.2
28/05:00pm 14.0 9.6 5.0 54 4.2 ESE 17 26 9 14 - - 0.2
28/04:30pm 14.7 10.9 5.7 55 4.3 SE 15 22 8 12 - - 0.2
28/04:00pm 14.7 11.8 6.5 58 4.0 SSE 11 19 6 10 - - 0.2
28/03:30pm 14.7 12.2 6.5 58 4.0 SSE 9 17 5 9 - - 0.0
28/03:00pm 14.2 12.3 6.8 61 3.6 NNE 6 11 3 6 - - 0.0
28/02:30pm 13.1 9.8 6.4 64 3.2 SE 13 22 7 12 - - 0.0
28/02:00pm 13.1 10.5 7.8 70 2.6 SSW 11 17 6 9 - - 0.0
28/01:30pm 13.7 10.3 5.9 59 3.7 SW 13 22 7 12 - - 0.0
28/01:00pm 13.6 10.6 7.5 66 3.0 SSW 13 22 7 12 - - 0.0
28/12:30pm 14.0 9.8 5.8 57 3.9 SSW 17 24 9 13 - - 0.0
28/12:00pm 13.9 9.4 6.2 59 3.7 SW 19 30 10 16 - - 0.0
28/11:30am 13.7 11.5 7.8 67 2.9 WSW 9 15 5 8 - - 0.0
28/11:00am 12.8 11.3 9.0 78 1.9 W 7 15 4 8 - - 0.0
28/10:30am 12.1 11.7 9.7 85 1.2 SW 2 7 1 4 - - 0.0
28/10:00am 11.5 10.3 9.7 89 0.9 SW 6 7 3 4 - - 0.0
28/09:30am 11.1 10.6 9.5 90 0.8 SW 2 9 1 5 - - 0.0
28/09:00am 10.3 9.0 9.3 93 0.5 SW 6 6 3 3 - - 1.6
28/08:30am 10.0 9.8 9.0 93 0.5 CALM 0 0 0 0 - - 1.6
28/08:00am 9.3 8.6 8.5 95 0.4 SSW 2 7 1 4 - - 1.6
28/07:30am 9.4 9.1 8.8 96 0.3 CALM 0 0 0 0 - - 1.4
28/07:00am 9.1 8.8 8.5 96 0.3 CALM 0 0 0 0 - - 1.4
28/06:30am 9.2 8.8 8.4 95 0.4 CALM 0 0 0 0 - - 1.0
28/06:00am 9.4 9.0 8.4 93 0.5 CALM 0 0 0 0 - - 1.0
28/05:30am 9.3 8.9 8.1 92 0.6 CALM 0 0 0 0 - - 1.0
28/05:00am 9.2 8.4 8.0 92 0.6 NNE 2 6 1 3 - - 1.0
28/04:30am 8.9 7.7 7.9 93 0.5 WSW 4 9 2 5 - - 1.0
28/04:00am 9.3 8.8 7.8 90 0.7 CALM 0 0 0 0 - - 1.0
28/03:30am 10.0 9.5 7.7 86 1.1 CALM 0 0 0 0 - - 1.0
28/03:00am 9.9 8.4 8.3 90 0.8 NNW 6 7 3 4 - - 1.0
28/02:30am 10.1 8.3 8.0 87 1.0 E 7 9 4 5 - - 1.0
28/02:00am 10.3 9.9 8.3 87 1.0 CALM 0 0 0 0 - - 1.0
28/01:30am 10.8 10.3 7.7 81 1.5 CALM 0 0 0 0 - - 1.0
28/01:00am 11.2 10.6 7.2 76 1.9 CALM 0 0 0 0 - - 1.0
28/12:30am 11.4 10.0 7.2 75 2.0 WSW 4 7 2 4 - - 1.0
28/12:00am 11.6 9.6 7.0 73 2.2 SW 7 13 4 7 - - 1.0
 
Date/Time
EDT
Temp
°C
App
Temp
°C
Dew
Point
Rel
Hum
%
Delta-T
°C
Wind Press
QNH
hPa
Press
MSL
hPa
Rain
since 9 am
mm
Dir
 
Spd
km/h
Gust
km/h
Spd
kts
Gust
kts
27/11:30pm 11.9 9.5 6.9 71 2.4 WSW 9 17 5 9 - - 1.0
27/11:00pm 12.1 9.2 6.7 69 2.6 WSW 11 17 6 9 - - 1.0
27/10:30pm 12.4 9.9 6.5 67 2.8 SW 9 19 5 10 - - 1.0
27/10:00pm 12.7 10.7 6.2 64 3.1 S 6 9 3 5 - - 1.0
27/09:30pm 12.7 10.7 6.9 68 2.8 WSW 7 9 4 5 - - 1.0
27/09:00pm 12.9 11.2 7.4 69 2.7 WSW 6 11 3 6 - - 1.0
27/08:30pm 13.7 11.8 7.4 65 3.1 SW 7 11 4 6 - - 1.0
27/08:00pm 14.1 11.9 7.9 66 3.1 SW 9 13 5 7 - - 1.0
27/07:30pm 14.8 13.1 8.2 64 3.3 WSW 7 11 4 6 - - 1.0
27/07:00pm 14.3 12.2 9.7 74 2.4 E 11 17 6 9 - - 1.0
27/06:30pm 14.5 12.4 9.7 73 2.5 ENE 11 17 6 9 - - 1.0
27/06:00pm 15.5 12.6 9.7 68 3.0 ENE 15 20 8 11 - - 1.0
27/05:30pm 14.8 13.0 9.6 71 2.7 E 9 17 5 9 - - 1.0
27/05:00pm 15.2 14.2 10.9 75 2.3 N 7 11 4 6 - - 1.0
27/04:30pm 14.8 12.4 10.2 74 2.4 NE 13 22 7 12 - - 0.8
27/04:00pm 14.3 12.2 9.7 74 2.4 SW 11 20 6 11 - - 0.8
27/03:30pm 17.1 15.4 9.9 62 3.8 S 9 19 5 10 - - 0.4
27/03:00pm 14.8 11.6 10.0 73 2.5 S 17 26 9 14 - - 0.4
27/02:30pm 17.1 15.0 6.6 50 5.2 SW 7 13 4 7 - - 0.0
27/02:00pm 15.0 11.5 7.3 60 3.8 S 15 26 8 14 - - 0.0
27/01:30pm 16.9 14.5 7.1 52 4.9 E 9 13 5 7 - - 0.0
27/01:00pm 16.2 14.5 7.6 56 4.3 E 6 9 3 5 - - 0.0
27/12:30pm 15.4 12.1 4.8 49 5.0 W 11 15 6 8 - - 0.0
27/12:00pm 15.5 11.6 5.5 51 4.8 WSW 15 22 8 12 - - 0.0
27/11:30am 16.0 13.4 6.1 52 4.8 NE 9 13 5 7 - - 0.0
27/11:00am 14.3 12.0 5.9 57 4.0 SW 7 11 4 6 - - 0.0
27/10:30am 13.7 11.3 5.2 56 4.0 SSW 7 13 4 7 - - 0.0
27/10:00am 14.2 11.5 5.8 57 4.0 S 9 13 5 7 - - 0.0
27/09:30am 11.8 9.0 7.0 72 2.3 SSW 11 17 6 9 - - 0.0
27/09:00am 13.4 11.4 7.3 66 3.0 SW 7 11 4 6 - - 0.0
27/08:30am 11.6 10.4 6.5 71 2.4 NNE 2 7 1 4 - - 0.0
27/08:00am 9.8 9.1 7.1 83 1.3 CALM 0 0 0 0 - - 0.0
27/07:30am 8.4 6.5 6.7 89 0.8 E 6 9 3 5 - - 0.0
27/07:00am 7.0 4.8 6.1 94 0.4 NE 7 7 4 4 - - 0.0
27/06:30am 6.6 5.7 6.2 97 0.2 CALM 0 0 0 0 - - 0.0
27/06:00am 5.9 4.9 5.7 99 0.1 CALM 0 0 0 0 - - 0.0
27/05:30am 6.2 5.2 5.5 95 0.3 CALM 0 0 0 0 - - 0.0
27/05:00am 6.6 5.7 5.9 95 0.3 CALM 0 0 0 0 - - 0.0
27/04:30am 7.1 6.2 6.2 94 0.4 CALM 0 0 0 0 - - 0.0
27/04:00am 7.1 6.2 6.0 93 0.5 CALM 0 0 0 0 - - 0.0
27/03:30am 7.2 6.3 6.1 93 0.5 CALM 0 0 0 0 - - 0.0
27/03:00am 7.4 6.5 6.1 91 0.6 CALM 0 0 0 0 - - 0.0
27/02:30am 7.2 6.3 5.9 91 0.6 CALM 0 0 0 0 - - 0.0
27/02:00am 6.7 5.7 5.6 93 0.5 CALM 0 6 0 3 - - 0.0
27/01:30am 6.0 4.2 5.3 95 0.3 NNE 4 7 2 4 - - 0.0
27/01:00am 6.3 3.9 5.4 94 0.4 NE 7 9 4 5 - - 0.0
27/12:30am 6.6 4.4 5.5 93 0.5 NNE 6 7 3 4 - - 0.0
27/12:00am 6.8 4.7 5.9 94 0.4 N 6 7 3 4 - - 0.0
 
Date/Time
EDT
Temp
°C
App
Temp
°C
Dew
Point
Rel
Hum
%
Delta-T
°C
Wind Press
QNH
hPa
Press
MSL
hPa
Rain
since 9 am
mm
Dir
 
Spd
km/h
Gust
km/h
Spd
kts
Gust
kts
26/11:30pm 7.4 6.4 5.8 90 0.7 CALM 0 0 0 0 - - 0.0
26/11:00pm 7.9 5.6 5.9 87 0.9 N 7 9 4 5 - - 0.0
26/10:30pm 8.6 6.4 6.4 86 1.0 NE 7 9 4 5 - - 0.0
26/10:00pm 9.7 7.6 6.0 78 1.7 N 6 9 3 5 - - 0.0
26/09:30pm 12.3 9.9 4.1 57 3.7 NE 6 9 3 5 - - 0.0
26/09:00pm 12.9 9.8 3.8 54 4.1 WSW 9 15 5 8 - - 0.0
26/08:30pm 13.8 10.2 3.1 48 4.8 W 11 17 6 9 - - 0.0
26/08:00pm 14.5 10.9 2.9 45 5.2 WSW 11 19 6 10 - - 0.0
26/07:30pm 15.1 12.5 4.1 47 5.1 W 7 11 4 6 - - 0.0
26/07:00pm 14.9 11.1 3.8 47 5.1 W 13 24 7 13 - - 0.0
26/06:30pm 15.2 10.9 3.4 45 5.4 W 15 22 8 12 - - 0.0
26/06:00pm 15.5 11.2 3.5 44 5.5 W 15 24 8 13 - - 0.0
26/05:30pm 15.6 11.0 3.9 45 5.4 WSW 17 24 9 13 - - 0.0
26/05:00pm 14.8 9.9 4.2 49 4.9 SW 19 28 10 15 - - 0.0
26/04:30pm 14.8 9.4 4.5 50 4.8 SW 22 35 12 19 - - 0.0
26/04:00pm 15.4 10.3 2.8 42 5.7 SW 19 35 10 19 - - 0.0
26/03:30pm 17.1 12.2 2.3 37 6.7 W 17 28 9 15 - - 0.0
26/03:00pm 16.4 10.8 1.5 36 6.6 W 20 30 11 16 - - 0.0
26/02:30pm 15.9 12.3 2.9 41 5.9 W 11 20 6 11 - - 0.0
26/02:00pm 16.1 10.1 1.0 36 6.6 WSW 22 37 12 20 - - 0.0
26/01:30pm 16.7 9.0 0.0 32 7.2 WNW 30 48 16 26 - - 0.0
26/01:25pm 16.9 9.8 1.3 35 6.9 W 28 48 15 26 - - 0.0
26/01:00pm 16.6 10.3 1.8 37 6.6 W 24 39 13 21 - - 0.0
26/12:30pm 15.6 9.8 2.1 40 6.0 W 22 35 12 19 - - 0.0
26/12:00pm 15.3 11.9 5.7 52 4.6 WSW 13 30 7 16 - - 0.0
26/11:30am 12.8 7.5 5.0 59 3.6 SW 22 28 12 15 - - 0.0
26/11:00am 13.6 10.1 7.3 65 3.1 SSW 15 20 8 11 - - 0.0
26/10:30am 12.2 8.1 6.1 66 2.9 SSW 17 26 9 14 - - 0.0
26/10:00am 13.0 10.9 6.0 62 3.3 NNW 6 13 3 7 - - 0.0
26/09:30am 12.9 11.1 5.2 59 3.6 SE 4 13 2 7 - - 0.0

Other Formats:

Comma delimited format used in spreadsheet applications
http://www.bom.gov.au/fwo/IDT60801/IDT60801.95977.axf

JavaScript Object Notation format (JSON) in row-major order
http://www.bom.gov.au/fwo/IDT60801/IDT60801.95977.json